Valley Peak, Santa Cruz Island Reserve, California Weather observations

Data are for 10 minute period ending at time listed.
 Day   Time   Solar   Ave.   Ave.  Ave.  Vector  Max.   Baro.   Total    
  of    of     Rad.   Air    Rel.  Wind   Wind   Wind  Press.  Precip.   
Year   Day            Temp.  Hum.  Speed  Dir.   Gust                    
2016   (PST)  Kw/m2    F      %     mph   deg.    mph    mb.     in.     
-------------------------------------------------------------------------
 146   17:00   0.34   65.8    38   12.8   324    22.6   967.2    0.00 
 146   17:10   0.30   65.0    37   15.5   323    25.9   967.1    0.00 
 146   17:20   0.27   64.7    37   16.7   320    30.2   967.0    0.00 
 146   17:30   0.23   64.9    36   17.0   322    30.2   967.0    0.00 
 146   17:40   0.20   64.8    36   15.6   326    29.7   967.1    0.00 
 146   17:50   0.17   64.4    36   18.5   324    32.5   967.1    0.00 
 146   18:00   0.14   63.7    38   17.9   324    31.5   966.9    0.00 
 146   18:10   0.11   63.5    37   18.4   330    30.3   966.7    0.00 
 146   18:20   0.09   63.2    38   16.5   340    31.4   966.8    0.00 
 146   18:30   0.06   62.3    41   17.6   345    30.6   966.8    0.00 
 146   18:40   0.04   61.2    44   16.8   344    31.7   966.9    0.00 
 146   18:50   0.02   60.8    45   19.1   336    30.5   967.0    0.00 
 146   19:00   0.00   60.6    45   20.8   337    34.2   967.0    0.00 
 146   19:10   0.00   60.6    45   20.2   333    34.5   967.0    0.00 
 146   19:20   0.00   60.7    44   20.5   337    33.1   967.0    0.00 
 146   19:30   0.00   61.6    40   21.4   333    33.8   967.0    0.00 
 146   19:40   0.00   61.8    39   21.0   338    35.7   967.0    0.00 
 146   19:50   0.00   61.7    40   21.4   333    36.6   967.1    0.00 
 146   20:00   0.00   61.3    41   20.4   333    32.2   967.1    0.00 
 146   20:10   0.00   61.7    40   19.8   336    34.2   967.2    0.00 
 146   20:20   0.00   61.5    41   20.6   338    32.1   967.2    0.00 
 146   20:30   0.00   60.8    45   22.2   340    35.8   967.1    0.00 
 146   20:40   0.00   60.3    48   19.6   345    34.0   967.2    0.00 
 146   20:50   0.00   60.6    46   20.1   345    37.8   967.3    0.00 
 146   21:00   0.00   61.1    45   20.2   340    38.1   967.4    0.00 
 146   21:10   0.00   61.5    44   16.5   348    28.4   967.5    0.00 
 146   21:20   0.00   61.5    45   17.9   341    31.4   967.6    0.00 
 146   21:30   0.00   60.9    47   17.3   358    31.4   967.6    0.00 
 146   21:40   0.00   60.3    49   18.2   355    30.0   967.6    0.00 
 146   21:50   0.00   60.4    49   18.3     2    31.7   967.5    0.00 
 146   22:00   0.00   60.1    50   17.6   350    30.1   967.5    0.00 
 146   22:10   0.00   59.6    52   16.5   344    31.6   967.5    0.00 
 146   22:20   0.00   59.4    52   16.0   351    28.3   967.5    0.00 
 146   22:30   0.00   59.0    54   15.8   351    28.8   967.4    0.00 
 146   22:40   0.00   59.0    54   15.0   346    28.2   967.4    0.00 
 146   22:50   0.00   59.1    53   13.7   339    29.0   967.5    0.00 
 146   23:00   0.00   59.1    53   14.2   347    25.1   967.5    0.00 
 146   23:10   0.00   59.3    52   12.3   327    24.8   967.6    0.00 
 146   23:20   0.00   58.5    55    6.2   316    18.2   967.6    0.00 
 146   23:30   0.00   56.4    61    2.9   350     7.2   967.6    0.00 
 146   23:40   0.00   55.4    63    2.2   303     5.8   967.6    0.00 
 146   23:50   0.00   55.3    64    4.3   129    13.2   967.5    0.00 
 147    0:00   0.00   53.6    73   11.0    30    16.0   967.5    0.00 
 147    0:10   0.00   52.8    77    8.7    28    13.7   967.6    0.00 
 147    0:20   0.00   52.4    78   11.4    36    15.3   967.5    0.00 
 147    0:30   0.00   52.1    79    8.5    30    15.9   967.5    0.00 
 147    0:40   0.00   51.7    81   10.3    31    14.9   967.5    0.00 
 147    0:50   0.00   51.7    81   13.2    20    16.8   967.5    0.00 
 147    1:00   0.00   51.6    81   13.4    11    19.4   967.3    0.00 
 147    1:10   0.00   51.8    81   12.4    14    16.8   967.3    0.00 
 147    1:20   0.00   51.5    83   13.3    19    18.0   967.2    0.00 
 147    1:30   0.00   51.3    84   13.5    12    16.8   967.2    0.00 
 147    1:40   0.00   51.1    85   13.5    12    17.2   967.2    0.00 
 147    1:50   0.00   50.9    86   16.7    25    21.9   967.1    0.00 
 147    2:00   0.00   50.6    88   18.6    17    23.5   966.8    0.00 
 147    2:10   0.00   50.7    88   17.8    12    23.2   966.6    0.00 
 147    2:20   0.00   50.7    88   17.8    13    25.8   966.5    0.00 
 147    2:30   0.00   50.6    88   14.0    17    19.0   966.5    0.00 
 147    2:40   0.00   50.7    87   15.1    16    19.4   966.6    0.00 
 147    2:50   0.00   52.8    78   13.3     7    17.8   966.4    0.00 
 147    3:00   0.00   50.7    87   11.6    27    15.1   966.5    0.00 
 147    3:10   0.00   50.3    88   11.6    25    14.3   966.5    0.00 
 147    3:20   0.00   50.3    88    8.7    22    11.6   966.6    0.00 
 147    3:30   0.00   51.7    82    7.4     4    10.7   966.6    0.00 
 147    3:40   0.00   52.1    81    8.4     6    12.5   966.7    0.00 
 147    3:50   0.00   52.4    80    9.5   353    11.9   966.6    0.00 
 147    4:00   0.00   52.7    79    4.5   360     9.8   966.8    0.00 
 147    4:10   0.00   51.8    82    2.0   210     3.5   966.9    0.00 
 147    4:20   0.00   51.5    82    4.1   234     5.7   967.0    0.00 
 147    4:30   0.00   51.0    84    4.1   242     5.8   967.2    0.00 
 147    4:40   0.00   51.2    83    4.0   222     5.3   967.2    0.00 
 147    4:50   0.00   50.8    86    6.2   227     7.4   967.3    0.00 
 147    5:00   0.00   50.4    87    6.0   226     6.9   967.4    0.00 
 147    5:10   0.02   50.1    89    4.7   222     6.1   967.5    0.00 
 147    5:20   0.04   50.1    90    4.4   209     6.2   967.6    0.00 
 147    5:30   0.06   50.3    89    5.2   188     6.6   967.7    0.00 
 147    5:40   0.09   50.7    89    4.6   184     5.9   967.9    0.00 
 147    5:50   0.11   51.4    87    4.4   160     6.5   968.0    0.00 
 147    6:00   0.14   52.2    86    3.9   140     6.5   968.1    0.00 
 147    6:10   0.17   53.5    83    4.2   132     6.6   968.2    0.00 
 147    6:20   0.20   54.9    80    4.6   129     7.2   968.3    0.00 
 147    6:30   0.23   55.8    79    4.8   132     7.3   968.4    0.00 
 147    6:40   0.27   56.3    79    4.9   131     9.5   968.4    0.00 
 147    6:50   0.30   57.2    77    4.1   130     7.1   968.5    0.00 
 147    7:00   0.33   57.5    76    3.1   124     6.8   968.6    0.00 
 147    7:10   0.37   58.5    74    3.6   135     7.0   968.5    0.00 
 147    7:20   0.41   59.0    73    3.3   131     9.4   968.5    0.00 
 147    7:30   0.43   59.5    72    5.3   122    10.1   968.5    0.00 
 147    7:40   0.47   59.5    72    4.2   120     9.2   968.6    0.00 
 147    7:50   0.52   60.3    71    4.5   129     9.5   968.6    0.00 
 147    8:00   0.56   60.6    70    4.2   130     9.0   968.6    0.00 
 147    8:10   0.47   60.7    70    3.9   147    10.4   968.5    0.00 
 147    8:20   0.50   60.4    71    4.7   138     9.8   968.6    0.00 
 147    8:30   0.45   60.1    72    4.6   142    10.5   968.6    0.00 
 147    8:40   0.43   58.2    76    4.6   147     9.6   968.6    0.00 
 147    8:50   0.74   61.6    68    4.0   152    10.2   968.7    0.00 
 147    9:00   0.61   63.0    65    4.5   141     8.9   968.7    0.00 
 147    9:10   0.40   61.4    69    5.0   149    10.4   968.7    0.00 
 147    9:20   0.33   60.7    70    4.3   152    11.0   968.7    0.00 
 147    9:30   0.64   62.0    68    4.4   142     9.3   968.7    0.00 
 147    9:40   0.72   61.8    68    4.7   181     8.6   968.7    0.00 
 147    9:50   0.84   62.9    66    2.8   128     6.6   968.7    0.00 
 147   10:00   0.42   64.0    65    4.2    75     8.5   968.6    0.00 
 147   10:10   0.40   62.8    67    2.2    64     8.0   968.5    0.00 
 147   10:20   0.75   62.5    67    2.3   284     8.3   968.6    0.00 
 147   10:30   0.56   62.6    65    3.7    86     8.6   968.5    0.00 
 147   10:40   0.92   63.5    63    3.1    75     9.7   968.4    0.00 
 147   10:50   0.94   67.6    54    5.1    61    11.4   968.4    0.00 
 147   11:00   0.94   66.2    57    3.5    62     9.5   968.3    0.00 
 147   11:10   0.95   67.2    55    6.0    47    13.4   968.1    0.00 
 147   11:20   0.95   68.5    53    5.5    53    12.3   968.0    0.00 
 147   11:30   0.95   68.7    53    7.4    46    13.0   967.9    0.00 
 147   11:40   0.96   69.0    52   10.4    42    15.9   967.8    0.00 
 147   11:50   0.96   69.4    51    7.3    48    13.2   967.8    0.00 
 147   12:00   0.96   69.4    51    6.0    67    10.6   967.8    0.00 
 147   12:10   0.96   69.2    52    5.1    78     9.3   967.7    0.00 
 147   12:20   0.95   69.0    53    5.9    95    10.0   967.7    0.00 
 147   12:30   0.95   69.2    53    5.8    96     9.9   967.6    0.00 
 147   12:40   0.95   70.1    52    3.7    93     7.5   967.5    0.00 
 147   12:50   0.94   71.2    50    5.4    95     9.4   967.4    0.00 
 147   13:00   0.93   70.9    50    4.1    78     9.2   967.3    0.00 
 147   13:10   0.92   70.8    50    4.7    87    10.9   967.3    0.00 
 147   13:20   0.91   70.8    51    3.4   134     7.7   967.1    0.00 
 147   13:30   0.90   71.8    49    3.3   101     9.3   967.0    0.00 
 147   13:40   0.89   72.0    49    6.1   127    12.3   966.9    0.00 
 147   13:50   0.87   71.0    50    5.2   136    10.2   966.9    0.00 
 147   14:00   0.85   70.4    51    5.3   126    10.4   966.8    0.00 
 147   14:10   0.83   71.6    49    4.7   136     9.9   966.7    0.00 
 147   14:20   0.81   70.6    51    4.4   142    10.2   966.5    0.00 
 147   14:30   0.79   67.8    55    5.0   183    10.2   966.5    0.00 
 147   14:40   0.77   66.5    57    4.7   173     9.6   966.4    0.00 
 147   14:50   0.74   65.8    57    4.9   194    12.1   966.3    0.00 
 147   15:00   0.72   66.8    53   10.0   236    14.2   966.2    0.00 
 147   15:10   0.69   65.9    55    7.8   235    12.3   966.1    0.00 
 147   15:20   0.66   65.9    55    5.2   225    11.0   966.0    0.00 
 147   15:30   0.63   67.5    52    3.2   274    10.5   965.8    0.00 
 147   15:40   0.60   68.7    50    5.5   232    10.7   965.7    0.00 
 147   15:50   0.57   68.8    50    5.0   224     9.3   965.6    0.00 
 147   16:00   0.54   68.6    50    5.3   230     9.0   965.5    0.00 
 147   16:10   0.51   68.6    50    6.2   216     9.9   965.4    0.00 
 147   16:20   0.48   68.0    50    4.8   227     9.9   965.3    0.00 
 147   16:30   0.44   70.3    48    2.7   259     7.2   965.1    0.00 
 147   16:40   0.41   69.9    48    3.3   242    10.2   965.0    0.00 
 147   16:50   0.38   68.8    52    3.3   185     7.5   964.9    0.00 

Return to Valley Peak, Santa Cruz Island Reserve graphs page.


Western Regional Climate Center,wrcc@dri.edu